createdAt,value
2023-04-20T00:00:49.106Z,87904.00
2023-04-20T00:01:49.111Z,87904.00
2023-04-20T00:02:49.245Z,87902.00
2023-04-20T00:03:49.217Z,87902.00
2023-04-20T00:04:49.081Z,87902.00
2023-04-20T00:05:49.005Z,87900.00
2023-04-20T00:06:49.004Z,87900.00
2023-04-20T00:07:48.997Z,87898.00
2023-04-20T00:08:49.061Z,87898.00
2023-04-20T00:09:48.954Z,87896.00
2023-04-20T00:10:48.940Z,87894.00
2023-04-20T00:11:49.037Z,87890.00
2023-04-20T00:12:48.980Z,87886.00
2023-04-20T00:13:49.052Z,87884.00
2023-04-20T00:14:49.082Z,87884.00
2023-04-20T00:15:49.163Z,87886.00
2023-04-20T00:16:49.274Z,87884.00
2023-04-20T00:17:49.251Z,87886.00
2023-04-20T00:18:49.299Z,87884.00
2023-04-20T00:19:49.398Z,87884.00
2023-04-20T00:20:49.369Z,87882.00
2023-04-20T00:21:49.427Z,87880.00
2023-04-20T00:22:49.480Z,87880.00
2023-04-20T00:23:49.513Z,87874.00
2023-04-20T00:24:49.582Z,87874.00
2023-04-20T00:25:49.638Z,87876.00
2023-04-20T00:26:49.695Z,87872.00
2023-04-20T00:27:49.734Z,87874.00
2023-04-20T00:28:49.785Z,87874.00
2023-04-20T00:29:49.823Z,87872.00
2023-04-20T00:30:49.900Z,87870.00
2023-04-20T00:31:49.943Z,87870.00
2023-04-20T00:32:49.987Z,87870.00
2023-04-20T00:33:50.039Z,87866.00
2023-04-20T00:34:50.105Z,87864.00
2023-04-20T00:35:50.148Z,87862.00
2023-04-20T00:36:50.219Z,87860.00
2023-04-20T00:37:50.221Z,87858.00
2023-04-20T00:38:50.296Z,87856.00
2023-04-20T00:39:50.325Z,87856.00
2023-04-20T00:40:50.386Z,87852.00
2023-04-20T00:41:50.430Z,87850.00
2023-04-20T00:42:50.481Z,87849.00
2023-04-20T00:43:50.605Z,87849.00
2023-04-20T00:44:50.589Z,87849.00
2023-04-20T00:45:50.659Z,87847.00
2023-04-20T00:46:50.667Z,87849.00
2023-04-20T00:47:50.740Z,87847.00
2023-04-20T00:48:50.779Z,87847.00
2023-04-20T00:49:50.815Z,87847.00
2023-04-20T00:50:50.845Z,87847.00
2023-04-20T00:51:50.821Z,87843.00
2023-04-20T00:52:50.807Z,87847.00
2023-04-20T00:53:50.783Z,87841.00
2023-04-20T00:54:50.751Z,87841.00
2023-04-20T00:55:50.784Z,87839.00
2023-04-20T00:56:50.742Z,87837.00
2023-04-20T00:57:50.716Z,87833.00
2023-04-20T00:58:50.714Z,87829.00
2023-04-20T00:59:50.756Z,87829.00
2023-04-20T01:00:50.801Z,87827.00
2023-04-20T01:01:50.886Z,87823.00
2023-04-20T01:02:51.015Z,87827.00
2023-04-20T01:03:51.054Z,87825.00
2023-04-20T01:04:51.004Z,87827.00
2023-04-20T01:05:51.059Z,87825.00
2023-04-20T01:06:51.092Z,87825.00
2023-04-20T01:07:51.129Z,87825.00
2023-04-20T01:08:51.198Z,87825.00
2023-04-20T01:09:51.247Z,87825.00
2023-04-20T01:10:51.274Z,87823.00
2023-04-20T01:11:51.313Z,87825.00
2023-04-20T01:12:51.351Z,87825.00
2023-04-20T01:13:51.404Z,87823.00
2023-04-20T01:14:51.439Z,87823.00
2023-04-20T01:15:51.495Z,87823.00
2023-04-20T01:16:51.541Z,87821.00
2023-04-20T01:17:51.631Z,87821.00
2023-04-20T01:18:51.637Z,87821.00
2023-04-20T01:19:51.718Z,87823.00
2023-04-20T01:20:51.721Z,87823.00
2023-04-20T01:21:51.801Z,87819.00
2023-04-20T01:22:51.871Z,87823.00
2023-04-20T01:23:51.885Z,87821.00
2023-04-20T01:24:51.921Z,87819.00
2023-04-20T01:25:51.901Z,87819.00
2023-04-20T01:26:51.878Z,87815.00
2023-04-20T01:27:51.876Z,87813.00
2023-04-20T01:28:51.844Z,87809.00
2023-04-20T01:29:51.819Z,87807.00
2023-04-20T01:30:51.798Z,87807.00
2023-04-20T01:31:51.856Z,87809.00
2023-04-20T01:32:51.871Z,87809.00
2023-04-20T01:33:51.768Z,87809.00
2023-04-20T01:34:51.736Z,87807.00
2023-04-20T01:35:51.715Z,87805.00
2023-04-20T01:36:51.704Z,87805.00
2023-04-20T01:37:51.678Z,87807.00
2023-04-20T01:38:51.676Z,87807.00
2023-04-20T01:39:51.790Z,87807.00
2023-04-20T01:40:51.766Z,87809.00
2023-04-20T01:41:51.822Z,87805.00
2023-04-20T01:42:51.871Z,87803.00
2023-04-20T01:43:51.937Z,87805.00
2023-04-20T01:44:51.987Z,87800.00
2023-04-20T01:45:52.081Z,87800.00
2023-04-20T01:46:52.139Z,87800.00
2023-04-20T01:47:52.213Z,87798.00
2023-04-20T01:48:52.167Z,87800.00
2023-04-20T01:49:52.257Z,87802.00
2023-04-20T01:50:52.272Z,87803.00
2023-04-20T01:51:52.328Z,87802.00
2023-04-20T01:52:52.403Z,87802.00
2023-04-20T01:53:52.426Z,87802.00
2023-04-20T01:54:52.495Z,87803.00
2023-04-20T01:55:52.531Z,87802.00
2023-04-20T01:56:52.587Z,87798.00
2023-04-20T01:57:52.649Z,87798.00
2023-04-20T01:58:52.719Z,87796.00
2023-04-20T01:59:52.738Z,87798.00
2023-04-20T02:00:52.813Z,87794.00
2023-04-20T02:01:52.914Z,87792.00
2023-04-20T02:02:53.009Z,87792.00
2023-04-20T02:03:53.366Z,87790.00
2023-04-20T02:04:52.988Z,87790.00
2023-04-20T02:05:53.060Z,87794.00
2023-04-20T02:06:53.131Z,87796.00
2023-04-20T02:07:53.145Z,87794.00
2023-04-20T02:08:53.192Z,87794.00
2023-04-20T02:09:53.273Z,87798.00
2023-04-20T02:10:53.308Z,87792.00
2023-04-20T02:11:53.372Z,87790.00
2023-04-20T02:12:53.403Z,87792.00
2023-04-20T02:13:53.455Z,87788.00
2023-04-20T02:14:53.521Z,87788.00
2023-04-20T02:15:53.599Z,87786.00
2023-04-20T02:16:53.654Z,87786.00
2023-04-20T02:17:53.696Z,87788.00
2023-04-20T02:18:53.730Z,87788.00
2023-04-20T02:21:12.882Z,87786.00
2023-04-20T02:22:12.850Z,87788.00
2023-04-20T02:23:12.871Z,87790.00
2023-04-20T02:24:12.932Z,87788.00
2023-04-20T02:25:12.903Z,87786.00
2023-04-20T02:26:12.920Z,87784.00
2023-04-20T02:27:12.932Z,87784.00
2023-04-20T02:28:12.935Z,87782.00
2023-04-20T02:29:12.976Z,87784.00
2023-04-20T02:30:12.979Z,87786.00
2023-04-20T02:31:13.009Z,87786.00
2023-04-20T02:32:12.972Z,87784.00
2023-04-20T02:33:13.019Z,87784.00
2023-04-20T02:34:12.997Z,87784.00
2023-04-20T02:35:13.034Z,87784.00
2023-04-20T02:36:13.055Z,87780.00
2023-04-20T02:37:13.039Z,87778.00
2023-04-20T02:38:13.042Z,87774.00
2023-04-20T02:39:13.055Z,87772.00
2023-04-20T02:40:13.093Z,87772.00
2023-04-20T02:41:13.065Z,87772.00
2023-04-20T02:42:13.080Z,87770.00
2023-04-20T02:43:13.086Z,87770.00
2023-04-20T02:44:13.114Z,87768.00
2023-04-20T02:45:13.117Z,87770.00
2023-04-20T02:46:13.147Z,87768.00
2023-04-20T02:47:13.140Z,87768.00
2023-04-20T02:48:13.179Z,87766.00
2023-04-20T02:49:13.179Z,87770.00
2023-04-20T02:50:13.207Z,87770.00
2023-04-20T02:51:13.213Z,87768.00
2023-04-20T02:52:13.228Z,87760.00
2023-04-20T02:53:13.276Z,87760.00
2023-04-20T02:54:13.281Z,87760.00
2023-04-20T02:55:13.288Z,87760.00
2023-04-20T02:56:13.321Z,87764.00
2023-04-20T02:57:13.322Z,87762.00
2023-04-20T02:58:13.350Z,87762.00
2023-04-20T02:59:13.367Z,87760.00
2023-04-20T03:00:13.411Z,87758.00
2023-04-20T03:01:13.400Z,87756.00
2023-04-20T03:02:13.504Z,87758.00
2023-04-20T03:03:13.594Z,87754.00
2023-04-20T03:04:13.579Z,87752.00
2023-04-20T03:05:13.458Z,87754.00
2023-04-20T03:06:13.475Z,87754.00
2023-04-20T03:07:15.356Z,87750.00
2023-04-20T03:08:13.514Z,87754.00
2023-04-20T03:09:13.555Z,87750.00
2023-04-20T03:10:13.546Z,87752.00
2023-04-20T03:11:13.577Z,87750.00
2023-04-20T03:12:13.586Z,87752.00
2023-04-20T03:13:13.619Z,87752.00
2023-04-20T03:14:13.640Z,87752.00
2023-04-20T03:15:13.654Z,87750.00
2023-04-20T03:16:13.696Z,87750.00
2023-04-20T03:17:13.704Z,87752.00
2023-04-20T03:18:13.713Z,87750.00
2023-04-20T03:19:13.741Z,87748.00
2023-04-20T03:20:13.759Z,87747.00
2023-04-20T03:21:13.781Z,87745.00
2023-04-20T03:22:13.798Z,87747.00
2023-04-20T03:23:13.821Z,87747.00
2023-04-20T03:24:13.844Z,87747.00
2023-04-20T03:25:13.857Z,87743.00
2023-04-20T03:26:13.877Z,87741.00
2023-04-20T03:27:13.893Z,87743.00
2023-04-20T03:28:13.908Z,87743.00
2023-04-20T03:29:13.941Z,87743.00
2023-04-20T03:30:13.974Z,87739.00
2023-04-20T03:31:13.979Z,87737.00
2023-04-20T03:32:14.035Z,87739.00
2023-04-20T03:33:14.041Z,87737.00
2023-04-20T03:34:14.066Z,87737.00
2023-04-20T03:35:14.063Z,87735.00
2023-04-20T03:36:14.097Z,87733.00
2023-04-20T03:37:14.119Z,87733.00
2023-04-20T03:38:14.132Z,87731.00
2023-04-20T03:39:14.157Z,87729.00
2023-04-20T03:40:14.172Z,87727.00
2023-04-20T03:41:14.185Z,87729.00
2023-04-20T03:42:14.221Z,87731.00
2023-04-20T03:43:14.207Z,87731.00
2023-04-20T03:44:14.228Z,87731.00
2023-04-20T03:45:14.257Z,87725.00
2023-04-20T03:46:14.268Z,87723.00
2023-04-20T03:47:14.279Z,87725.00
2023-04-20T03:48:14.284Z,87723.00
2023-04-20T03:49:14.289Z,87721.00
2023-04-20T03:50:14.304Z,87719.00
2023-04-20T03:51:14.318Z,87717.00
2023-04-20T03:52:14.352Z,87719.00
2023-04-20T03:53:14.361Z,87717.00
2023-04-20T03:54:14.362Z,87717.00
2023-04-20T03:55:14.400Z,87713.00
2023-04-20T03:56:14.413Z,87702.00
2023-04-20T03:57:14.408Z,87700.00
2023-04-20T03:58:14.406Z,87702.00
2023-04-20T03:59:14.436Z,87702.00
2023-04-20T04:00:14.440Z,87698.00
2023-04-20T04:01:14.454Z,87702.00
2023-04-20T04:02:14.543Z,87700.00
2023-04-20T04:03:14.705Z,87698.00
2023-04-20T04:04:14.754Z,87698.00
2023-04-20T04:05:14.510Z,87698.00
2023-04-20T04:06:14.512Z,87698.00
2023-04-20T04:07:14.534Z,87694.00
2023-04-20T04:08:14.540Z,87700.00
2023-04-20T04:09:14.597Z,87698.00
2023-04-20T04:10:14.633Z,87696.00
2023-04-20T04:11:14.684Z,87696.00
2023-04-20T04:12:14.754Z,87696.00
2023-04-20T04:13:14.789Z,87696.00
2023-04-20T04:14:14.866Z,87692.00
2023-04-20T04:15:14.944Z,87692.00
2023-04-20T04:16:14.992Z,87692.00
2023-04-20T04:17:15.092Z,87690.00
2023-04-20T04:18:15.121Z,87690.00
2023-04-20T04:19:15.335Z,87694.00
2023-04-20T04:20:15.209Z,87696.00
2023-04-20T04:21:15.273Z,87698.00
2023-04-20T04:22:15.325Z,87696.00
2023-04-20T04:23:15.399Z,87692.00
2023-04-20T04:24:15.710Z,87694.00
2023-04-20T04:25:15.494Z,87692.00
2023-04-20T04:26:15.547Z,87696.00
2023-04-20T04:27:15.653Z,87700.00
2023-04-20T04:28:15.667Z,87698.00
2023-04-20T04:29:15.906Z,87696.00
2023-04-20T04:30:15.784Z,87696.00
2023-04-20T04:31:15.886Z,87692.00
2023-04-20T04:32:15.915Z,87690.00
2023-04-20T04:33:15.959Z,87692.00
2023-04-20T04:34:16.010Z,87692.00
2023-04-20T04:35:16.196Z,87694.00
2023-04-20T04:36:16.131Z,87694.00
2023-04-20T04:37:16.214Z,87696.00
2023-04-20T04:38:16.239Z,87692.00
2023-04-20T04:39:16.582Z,87694.00
2023-04-20T04:40:16.374Z,87694.00
2023-04-20T04:41:16.409Z,87698.00
2023-04-20T04:42:16.473Z,87700.00
2023-04-20T04:43:16.538Z,87698.00
2023-04-20T04:44:16.614Z,87696.00
2023-04-20T04:45:16.702Z,87696.00
2023-04-20T04:46:16.748Z,87694.00
2023-04-20T04:47:16.760Z,87692.00
2023-04-20T04:48:16.818Z,87696.00
2023-04-20T04:49:17.166Z,87692.00
2023-04-20T04:50:17.012Z,87696.00
2023-04-20T04:51:16.997Z,87700.00
2023-04-20T04:52:17.015Z,87698.00
2023-04-20T04:53:17.006Z,87700.00
2023-04-20T04:54:17.050Z,87700.00
2023-04-20T04:55:17.040Z,87698.00
2023-04-20T04:56:17.051Z,87696.00
2023-04-20T04:57:17.078Z,87698.00
2023-04-20T04:58:17.088Z,87696.00
2023-04-20T04:59:17.400Z,87696.00
2023-04-20T05:00:17.109Z,87700.00
2023-04-20T05:01:17.119Z,87696.00
2023-04-20T05:02:17.308Z,87694.00
2023-04-20T05:03:17.271Z,87692.00
2023-04-20T05:04:17.285Z,87690.00
2023-04-20T05:05:17.166Z,87690.00
2023-04-20T05:06:17.219Z,87692.00
2023-04-20T05:07:17.297Z,87692.00
2023-04-20T05:08:17.310Z,87694.00
2023-04-20T05:09:17.656Z,87700.00
2023-04-20T05:10:17.376Z,87698.00
2023-04-20T05:11:17.385Z,87700.00
2023-04-20T05:12:17.419Z,87696.00
2023-04-20T05:13:17.418Z,87696.00
2023-04-20T05:14:17.451Z,87698.00
2023-04-20T05:15:17.444Z,87700.00
2023-04-20T05:16:17.483Z,87702.00
2023-04-20T05:17:17.550Z,87702.00
2023-04-20T05:18:17.468Z,87700.00
2023-04-20T05:19:17.658Z,87700.00
2023-04-20T05:20:17.545Z,87709.00
2023-04-20T05:21:17.558Z,87709.00
2023-04-20T05:22:17.561Z,87709.00
2023-04-20T05:23:17.563Z,87709.00
2023-04-20T05:24:17.562Z,87711.00
2023-04-20T05:25:17.583Z,87711.00
2023-04-20T05:26:17.578Z,87709.00
2023-04-20T05:27:17.621Z,87702.00
2023-04-20T05:28:17.612Z,87702.00
2023-04-20T05:29:17.965Z,87702.00
2023-04-20T05:30:21.398Z,87702.00
2023-04-20T05:31:17.707Z,87709.00
2023-04-20T05:32:17.719Z,87702.00
2023-04-20T05:33:17.722Z,87709.00
2023-04-20T05:34:17.729Z,87702.00
2023-04-20T05:35:17.741Z,87709.00
2023-04-20T05:36:17.756Z,87711.00
2023-04-20T05:37:17.751Z,87713.00
2023-04-20T05:38:17.758Z,87713.00
2023-04-20T05:39:18.041Z,87713.00
2023-04-20T05:40:17.776Z,87709.00
2023-04-20T05:41:17.798Z,87709.00
2023-04-20T05:42:17.828Z,87702.00
2023-04-20T05:43:17.812Z,87700.00
2023-04-20T05:44:17.835Z,87709.00
2023-04-20T05:45:17.845Z,87709.00
2023-04-20T05:46:17.939Z,87711.00
2023-04-20T05:47:17.938Z,87711.00
2023-04-20T05:48:17.982Z,87702.00
2023-04-20T05:49:18.148Z,87700.00
2023-04-20T05:50:18.031Z,87700.00
2023-04-20T05:51:18.056Z,87698.00
2023-04-20T05:52:18.073Z,87694.00
2023-04-20T05:53:18.061Z,87696.00
2023-04-20T05:54:18.078Z,87696.00
2023-04-20T05:55:19.919Z,87694.00
2023-04-20T05:56:18.307Z,87694.00
2023-04-20T05:57:18.293Z,87694.00
2023-04-20T05:58:18.338Z,87692.00
2023-04-20T05:59:18.563Z,87692.00
2023-04-20T06:00:18.615Z,87690.00
2023-04-20T06:01:18.244Z,87688.00
2023-04-20T06:02:18.799Z,87690.00
2023-04-20T06:03:18.580Z,87690.00
2023-04-20T06:04:18.537Z,87692.00
2023-04-20T06:05:18.607Z,87692.00
2023-04-20T06:06:19.245Z,87694.00
2023-04-20T06:07:18.380Z,87698.00
2023-04-20T06:08:18.652Z,87698.00
2023-04-20T06:09:20.762Z,87700.00
2023-04-20T06:11:37.715Z,87698.00
2023-04-20T06:12:37.601Z,87696.00
2023-04-20T06:13:37.543Z,87696.00
2023-04-20T06:14:37.512Z,87696.00
2023-04-20T06:15:38.372Z,87692.00
2023-04-20T06:16:37.492Z,87696.00
2023-04-20T06:17:38.296Z,87694.00
2023-04-20T06:18:37.570Z,87692.00
2023-04-20T06:19:37.506Z,87690.00
2023-04-20T06:20:37.665Z,87690.00
2023-04-20T06:21:37.516Z,87692.00
2023-04-20T06:22:37.458Z,87692.00
2023-04-20T06:23:37.536Z,87692.00
2023-04-20T06:24:37.663Z,87692.00
2023-04-20T06:25:37.419Z,87690.00
2023-04-20T06:26:37.438Z,87696.00
2023-04-20T06:27:37.397Z,87698.00
2023-04-20T06:28:37.416Z,87696.00
2023-04-20T06:29:37.436Z,87694.00
2023-04-20T06:30:37.842Z,87694.00
2023-04-20T06:31:37.573Z,87694.00
2023-04-20T06:32:37.444Z,87694.00
2023-04-20T06:33:37.339Z,87698.00
2023-04-20T06:34:37.366Z,87694.00
2023-04-20T06:35:37.323Z,87696.00
2023-04-20T06:36:37.318Z,87696.00
2023-04-20T06:37:37.307Z,87700.00
2023-04-20T06:38:37.376Z,87698.00
2023-04-20T06:39:37.333Z,87698.00
2023-04-20T06:40:37.289Z,87696.00
2023-04-20T06:41:37.293Z,87696.00
2023-04-20T06:42:37.323Z,87694.00
2023-04-20T06:43:37.264Z,87694.00
2023-04-20T06:44:37.262Z,87694.00
2023-04-20T06:45:37.269Z,87694.00
2023-04-20T06:46:37.243Z,87692.00
2023-04-20T06:47:37.324Z,87692.00
2023-04-20T06:48:37.324Z,87694.00
2023-04-20T06:49:37.193Z,87690.00
2023-04-20T06:50:37.208Z,87692.00
2023-04-20T06:51:37.206Z,87690.00
2023-04-20T06:52:37.204Z,87688.00
2023-04-20T06:53:37.302Z,87688.00
2023-04-20T06:54:37.326Z,87685.00
2023-04-20T06:55:37.575Z,87687.00
2023-04-20T06:56:37.311Z,87681.00
2023-04-20T06:57:37.334Z,87679.00
2023-04-20T06:58:37.315Z,87679.00
2023-04-20T06:59:37.337Z,87677.00
2023-04-20T07:00:37.328Z,87675.00
2023-04-20T07:01:37.375Z,87675.00
2023-04-20T07:02:37.426Z,87679.00
2023-04-20T07:03:37.568Z,87677.00
2023-04-20T07:04:37.441Z,87675.00
2023-04-20T07:05:37.677Z,87679.00
2023-04-20T07:06:37.423Z,87675.00
2023-04-20T07:07:37.428Z,87675.00
2023-04-20T07:09:56.136Z,87673.00
2023-04-20T07:10:56.116Z,87673.00
2023-04-20T07:11:56.111Z,87675.00
2023-04-20T07:12:56.152Z,87677.00
2023-04-20T07:13:56.143Z,87677.00
2023-04-20T07:14:56.191Z,87677.00
2023-04-20T07:15:56.229Z,87679.00
2023-04-20T07:16:56.236Z,87679.00
2023-04-20T07:17:56.259Z,87681.00
2023-04-20T07:18:56.189Z,87679.00
2023-04-20T07:19:56.286Z,87677.00
2023-04-20T07:20:56.213Z,87677.00
2023-04-20T07:21:56.233Z,87679.00
2023-04-20T07:22:56.226Z,87679.00
2023-04-20T07:23:56.296Z,87679.00
2023-04-20T07:24:56.262Z,87679.00
2023-04-20T07:25:56.262Z,87679.00
2023-04-20T07:26:56.284Z,87679.00
2023-04-20T07:27:56.272Z,87681.00
2023-04-20T07:28:56.322Z,87679.00
2023-04-20T07:29:56.326Z,87679.00
2023-04-20T07:30:56.416Z,87677.00
2023-04-20T07:31:56.410Z,87675.00
2023-04-20T07:32:56.391Z,87675.00
2023-04-20T07:33:56.377Z,87675.00
2023-04-20T07:34:56.419Z,87673.00
2023-04-20T07:35:56.489Z,87673.00
2023-04-20T07:36:56.506Z,87675.00
2023-04-20T07:37:56.552Z,87673.00
2023-04-20T07:38:56.633Z,87673.00
2023-04-20T07:39:56.634Z,87671.00
2023-04-20T07:40:56.725Z,87671.00
2023-04-20T07:41:56.841Z,87673.00
2023-04-20T07:42:56.792Z,87677.00
2023-04-20T07:43:56.876Z,87675.00
2023-04-20T07:44:56.876Z,87677.00
2023-04-20T07:45:57.018Z,87677.00
2023-04-20T07:46:56.985Z,87675.00
2023-04-20T07:47:57.091Z,87677.00
2023-04-20T07:48:57.069Z,87675.00
2023-04-20T07:49:57.097Z,87675.00
2023-04-20T07:50:57.144Z,87673.00
2023-04-20T07:52:09.314Z,87671.00
2023-04-20T07:52:58.153Z,87671.00
2023-04-20T07:53:57.198Z,87669.00
2023-04-20T07:54:57.171Z,87671.00
2023-04-20T07:55:57.184Z,87671.00
2023-04-20T07:56:57.168Z,87675.00
2023-04-20T07:57:57.159Z,87671.00
2023-04-20T07:58:57.215Z,87673.00
2023-04-20T07:59:57.123Z,87671.00
2023-04-20T08:00:57.142Z,87671.00
2023-04-20T08:01:57.186Z,87667.00
2023-04-20T08:02:57.431Z,87667.00
2023-04-20T08:03:57.276Z,87673.00
2023-04-20T08:04:57.319Z,87673.00
2023-04-20T08:05:57.150Z,87669.00
2023-04-20T08:06:57.109Z,87673.00
2023-04-20T08:07:57.114Z,87673.00
2023-04-20T08:08:57.121Z,87671.00
2023-04-20T08:09:57.200Z,87677.00
2023-04-20T08:10:57.226Z,87671.00
2023-04-20T08:11:57.585Z,87675.00
2023-04-20T08:12:57.262Z,87673.00
2023-04-20T08:13:58.472Z,87669.00
2023-04-20T08:14:57.443Z,87669.00
2023-04-20T08:15:57.499Z,87669.00
2023-04-20T08:16:57.464Z,87667.00
2023-04-20T08:17:57.471Z,87669.00
2023-04-20T08:18:57.489Z,87669.00
2023-04-20T08:19:57.525Z,87667.00
2023-04-20T08:20:57.563Z,87669.00
2023-04-20T08:21:57.592Z,87665.00
2023-04-20T08:22:57.650Z,87665.00
2023-04-20T08:23:57.718Z,87663.00
2023-04-20T08:24:57.739Z,87665.00
2023-04-20T08:25:58.028Z,87661.00
2023-04-20T08:26:57.762Z,87651.00
2023-04-20T08:27:57.816Z,87657.00
2023-04-20T08:28:57.869Z,87659.00
2023-04-20T08:29:57.888Z,87657.00
2023-04-20T08:30:57.914Z,87659.00
2023-04-20T08:31:57.972Z,87655.00
2023-04-20T08:32:57.959Z,87653.00
2023-04-20T08:33:57.909Z,87653.00
2023-04-20T08:34:57.876Z,87651.00
2023-04-20T08:35:57.820Z,87651.00
2023-04-20T08:36:57.827Z,87655.00
2023-04-20T08:37:57.976Z,87657.00
2023-04-20T08:38:57.829Z,87651.00
2023-04-20T08:39:57.795Z,87653.00
2023-04-20T08:40:57.775Z,87663.00
2023-04-20T08:41:57.762Z,87659.00
2023-04-20T08:42:57.734Z,87661.00
2023-04-20T08:43:57.773Z,87659.00
2023-04-20T08:44:57.710Z,87657.00
2023-04-20T08:45:57.784Z,87661.00
2023-04-20T08:46:57.906Z,87661.00
2023-04-20T08:47:57.729Z,87657.00
2023-04-20T08:48:57.666Z,87659.00
2023-04-20T08:49:57.626Z,87659.00
2023-04-20T08:50:57.674Z,87653.00
2023-04-20T08:51:57.602Z,87655.00
2023-04-20T08:52:57.607Z,87653.00
2023-04-20T08:53:57.580Z,87649.00
2023-04-20T08:54:58.107Z,87659.00
2023-04-20T08:55:57.560Z,87657.00
2023-04-20T08:56:57.542Z,87659.00
2023-04-20T08:57:57.511Z,87655.00
2023-04-20T08:58:57.550Z,87655.00
2023-04-20T08:59:57.648Z,87657.00
2023-04-20T09:00:57.545Z,87657.00
2023-04-20T09:01:57.729Z,87655.00
2023-04-20T09:02:57.679Z,87651.00
2023-04-20T09:03:57.676Z,87649.00
2023-04-20T09:04:57.659Z,87647.00
2023-04-20T09:05:57.658Z,87649.00
2023-04-20T09:06:57.770Z,87655.00
2023-04-20T09:07:57.727Z,87655.00
2023-04-20T09:08:57.775Z,87653.00
2023-04-20T09:09:57.766Z,87659.00
2023-04-20T09:10:57.822Z,87661.00
2023-04-20T09:11:57.843Z,87657.00
2023-04-20T09:12:57.860Z,87659.00
2023-04-20T09:13:57.867Z,87659.00
2023-04-20T09:14:57.910Z,87661.00
2023-04-20T09:15:57.920Z,87655.00
2023-04-20T09:16:57.960Z,87667.00
2023-04-20T09:17:58.104Z,87659.00
2023-04-20T09:18:57.962Z,87667.00
2023-04-20T09:19:58.094Z,87661.00
2023-04-20T09:20:58.067Z,87661.00
2023-04-20T09:21:57.996Z,87661.00
2023-04-20T09:22:58.042Z,87667.00
2023-04-20T09:23:58.048Z,87661.00
2023-04-20T09:24:58.100Z,87663.00
2023-04-20T09:25:58.098Z,87661.00
2023-04-20T09:26:58.131Z,87657.00
2023-04-20T09:27:58.108Z,87659.00
2023-04-20T09:28:58.122Z,87655.00
2023-04-20T09:29:58.163Z,87655.00
2023-04-20T09:30:58.154Z,87651.00
2023-04-20T09:31:58.221Z,87649.00
2023-04-20T09:32:58.314Z,87647.00
2023-04-20T09:33:58.355Z,87653.00
2023-04-20T09:34:58.332Z,87647.00
2023-04-20T09:35:58.225Z,87653.00
2023-04-20T09:36:58.308Z,87647.00
2023-04-20T09:37:58.610Z,87649.00
2023-04-20T09:38:58.434Z,87655.00
2023-04-20T09:39:58.410Z,87653.00
2023-04-20T09:40:58.394Z,87651.00
2023-04-20T09:41:58.351Z,87655.00
2023-04-20T09:42:58.379Z,87651.00
2023-04-20T09:43:58.362Z,87651.00
2023-04-20T09:44:58.862Z,87651.00
2023-04-20T09:45:58.706Z,87655.00
2023-04-20T09:46:59.342Z,87647.00
2023-04-20T09:47:58.435Z,87649.00
2023-04-20T09:48:58.424Z,87649.00
2023-04-20T09:50:00.345Z,87651.00
2023-04-20T09:50:59.424Z,87647.00
2023-04-20T09:51:58.681Z,87641.00
2023-04-20T09:52:59.365Z,87649.00
2023-04-20T09:53:58.509Z,87655.00
2023-04-20T09:54:58.439Z,87647.00
2023-04-20T09:55:59.345Z,87645.00
2023-04-20T09:56:58.412Z,87643.00
2023-04-20T09:57:58.440Z,87641.00
2023-04-20T09:58:58.430Z,87643.00
2023-04-20T09:59:58.475Z,87641.00
2023-04-20T10:00:58.679Z,87633.00
2023-04-20T10:01:58.686Z,87643.00
2023-04-20T10:02:58.809Z,87635.00
2023-04-20T10:03:59.866Z,87632.00
2023-04-20T10:04:58.628Z,87633.00
2023-04-20T10:05:58.522Z,87635.00
2023-04-20T10:06:58.565Z,87630.00
2023-04-20T10:07:58.689Z,87635.00
2023-04-20T10:08:58.659Z,87635.00
2023-04-20T10:09:58.869Z,87632.00
2023-04-20T10:10:59.387Z,87633.00
2023-04-20T10:11:59.613Z,87630.00
2023-04-20T10:12:58.674Z,87632.00
2023-04-20T10:13:58.647Z,87630.00
2023-04-20T10:14:58.712Z,87632.00
2023-04-20T10:15:58.683Z,87632.00
2023-04-20T10:16:58.680Z,87628.00
2023-04-20T10:17:58.791Z,87630.00
2023-04-20T10:18:58.882Z,87630.00
2023-04-20T10:19:59.363Z,87635.00
2023-04-20T10:20:58.760Z,87635.00
2023-04-20T10:21:58.645Z,87635.00
2023-04-20T10:22:58.651Z,87639.00
2023-04-20T10:23:58.616Z,87635.00
2023-04-20T10:24:58.747Z,87628.00
2023-04-20T10:25:58.679Z,87628.00
2023-04-20T10:26:59.347Z,87632.00
2023-04-20T10:27:58.651Z,87632.00
2023-04-20T10:28:58.815Z,87637.00
2023-04-20T10:29:58.664Z,87635.00
2023-04-20T10:30:58.954Z,87633.00
2023-04-20T10:31:58.674Z,87633.00
2023-04-20T10:32:58.839Z,87643.00
2023-04-20T10:33:58.752Z,87637.00
2023-04-20T10:34:58.879Z,87637.00
2023-04-20T10:35:58.647Z,87632.00
2023-04-20T10:36:59.368Z,87630.00
2023-04-20T10:37:58.680Z,87637.00
2023-04-20T10:38:58.676Z,87632.00
2023-04-20T10:39:59.130Z,87626.00
2023-04-20T10:40:58.685Z,87624.00
2023-04-20T10:41:58.645Z,87626.00
2023-04-20T10:42:58.756Z,87633.00
2023-04-20T10:43:58.688Z,87633.00
2023-04-20T10:44:58.656Z,87633.00
2023-04-20T10:45:59.405Z,87626.00
2023-04-20T10:46:58.963Z,87632.00
2023-04-20T10:47:58.690Z,87630.00
2023-04-20T10:48:58.657Z,87630.00
2023-04-20T10:49:58.838Z,87632.00
2023-04-20T10:50:58.664Z,87632.00
2023-04-20T10:51:58.699Z,87626.00
2023-04-20T10:52:58.688Z,87624.00
2023-04-20T10:53:58.660Z,87624.00
2023-04-20T10:54:58.788Z,87624.00
2023-04-20T10:55:58.706Z,87620.00
2023-04-20T10:56:59.387Z,87618.00
2023-04-20T10:57:58.780Z,87612.00
2023-04-20T10:59:00.538Z,87616.00
2023-04-20T10:59:58.604Z,87618.00
2023-04-20T11:00:58.697Z,87614.00
2023-04-20T11:01:59.545Z,87616.00
2023-04-20T11:02:59.088Z,87614.00
2023-04-20T11:03:58.640Z,87616.00
2023-04-20T11:04:58.914Z,87610.00
2023-04-20T11:05:58.491Z,87612.00
2023-04-20T11:06:58.458Z,87608.00
2023-04-20T11:07:58.774Z,87608.00
2023-04-20T11:08:58.627Z,87602.00
2023-04-20T11:09:58.681Z,87608.00
2023-04-20T11:10:58.460Z,87604.00
2023-04-20T11:11:58.344Z,87608.00
2023-04-20T11:12:58.371Z,87612.00
2023-04-20T11:13:58.277Z,87608.00
2023-04-20T11:14:58.225Z,87610.00
2023-04-20T11:15:58.357Z,87608.00
2023-04-20T11:16:58.290Z,87602.00
2023-04-20T11:17:58.286Z,87608.00
2023-04-20T11:18:58.182Z,87604.00
2023-04-20T11:19:58.135Z,87612.00
2023-04-20T11:20:58.231Z,87612.00
2023-04-20T11:21:58.157Z,87612.00
2023-04-20T11:22:58.091Z,87604.00
2023-04-20T11:23:58.107Z,87608.00
2023-04-20T11:24:58.117Z,87606.00
2023-04-20T11:25:58.110Z,87606.00
2023-04-20T11:26:58.187Z,87608.00
2023-04-20T11:27:58.087Z,87606.00
2023-04-20T11:28:58.052Z,87606.00
2023-04-20T11:29:58.031Z,87608.00
2023-04-20T11:30:58.025Z,87604.00
2023-04-20T11:31:58.193Z,87610.00
2023-04-20T11:32:58.076Z,87610.00
2023-04-20T11:33:58.152Z,87606.00
2023-04-20T11:35:06.099Z,87602.00
2023-04-20T11:35:57.971Z,87602.00
2023-04-20T11:36:57.984Z,87600.00
2023-04-20T11:37:57.956Z,87600.00
2023-04-20T11:38:57.966Z,87602.00
2023-04-20T11:39:57.930Z,87604.00
2023-04-20T11:40:57.993Z,87596.00
2023-04-20T11:41:58.137Z,87600.00
2023-04-20T11:42:57.888Z,87604.00
2023-04-20T11:43:57.900Z,87596.00
2023-04-20T11:44:57.868Z,87598.00
2023-04-20T11:45:57.871Z,87602.00
2023-04-20T11:46:57.888Z,87602.00
2023-04-20T11:47:57.867Z,87598.00
2023-04-20T11:48:57.824Z,87600.00